sensor_id;sensor_type;location;lat;lon;timestamp;temperature;humidity
66160;DHT22;52960;50.810;20.620;2022-07-29T00:00:08;23;74
66160;DHT22;52960;50.810;20.620;2022-07-29T00:07:18;26;83
66160;DHT22;52960;50.810;20.620;2022-07-29T00:14:13;26;83
66160;DHT22;52960;50.810;20.620;2022-07-29T00:21:02;26;83
66160;DHT22;52960;50.810;20.620;2022-07-29T00:28:16;26;83
66160;DHT22;52960;50.810;20.620;2022-07-29T00:42:21;25;85
66160;DHT22;52960;50.810;20.620;2022-07-29T00:49:19;25;85
66160;DHT22;52960;50.810;20.620;2022-07-29T00:56:17;25;85
66160;DHT22;52960;50.810;20.620;2022-07-29T01:00:03;25;85
66160;DHT22;52960;50.810;20.620;2022-07-29T01:07:20;24;86
66160;DHT22;52960;50.810;20.620;2022-07-29T01:14:05;24;86
66160;DHT22;52960;50.810;20.620;2022-07-29T01:21:37;24;86
66160;DHT22;52960;50.810;20.620;2022-07-29T01:35:46;23;88
66160;DHT22;52960;50.810;20.620;2022-07-29T01:42:34;23;88
66160;DHT22;52960;50.810;20.620;2022-07-29T01:49:24;23;88
66160;DHT22;52960;50.810;20.620;2022-07-29T01:56:09;23;88
66160;DHT22;52960;50.810;20.620;2022-07-29T02:00:14;23;88
66160;DHT22;52960;50.810;20.620;2022-07-29T02:07:25;23;89
66160;DHT22;52960;50.810;20.620;2022-07-29T02:14:49;23;89
66160;DHT22;52960;50.810;20.620;2022-07-29T02:21:19;23;89
66160;DHT22;52960;50.810;20.620;2022-07-29T02:28:11;23;89
66160;DHT22;52960;50.810;20.620;2022-07-29T02:35:26;25;87
66160;DHT22;52960;50.810;20.620;2022-07-29T02:42:36;25;87
66160;DHT22;52960;50.810;20.620;2022-07-29T02:49:43;25;87
66160;DHT22;52960;50.810;20.620;2022-07-29T02:56:16;25;87
66160;DHT22;52960;50.810;20.620;2022-07-29T03:00:41;25;87
66160;DHT22;52960;50.810;20.620;2022-07-29T03:07:13;24;88
66160;DHT22;52960;50.810;20.620;2022-07-29T03:14:23;24;88
66160;DHT22;52960;50.810;20.620;2022-07-29T03:21:03;24;88
66160;DHT22;52960;50.810;20.620;2022-07-29T03:28:03;24;88
66160;DHT22;52960;50.810;20.620;2022-07-29T03:35:06;24;85
66160;DHT22;52960;50.810;20.620;2022-07-29T03:42:26;24;85
66160;DHT22;52960;50.810;20.620;2022-07-29T03:49:15;24;85
66160;DHT22;52960;50.810;20.620;2022-07-29T03:56:44;24;85
66160;DHT22;52960;50.810;20.620;2022-07-29T04:00:03;24;85
66160;DHT22;52960;50.810;20.620;2022-07-29T04:07:30;24;87
66160;DHT22;52960;50.810;20.620;2022-07-29T04:14:14;24;87
66160;DHT22;52960;50.810;20.620;2022-07-29T04:21:06;24;87
66160;DHT22;52960;50.810;20.620;2022-07-29T04:28:15;24;87
66160;DHT22;52960;50.810;20.620;2022-07-29T04:35:03;24;86
66160;DHT22;52960;50.810;20.620;2022-07-29T04:42:03;24;86
66160;DHT22;52960;50.810;20.620;2022-07-29T04:49:08;24;86
66160;DHT22;52960;50.810;20.620;2022-07-29T04:56:16;24;86
66160;DHT22;52960;50.810;20.620;2022-07-29T05:00:09;24;86
66160;DHT22;52960;50.810;20.620;2022-07-29T05:07:16;24;86
66160;DHT22;52960;50.810;20.620;2022-07-29T05:14:16;24;86
66160;DHT22;52960;50.810;20.620;2022-07-29T05:21:06;24;86
66160;DHT22;52960;50.810;20.620;2022-07-29T05:28:18;24;86
66160;DHT22;52960;50.810;20.620;2022-07-29T05:35:13;24;87
66160;DHT22;52960;50.810;20.620;2022-07-29T05:42:22;24;87
66160;DHT22;52960;50.810;20.620;2022-07-29T05:49:20;24;87
66160;DHT22;52960;50.810;20.620;2022-07-29T05:56:16;24;87
66160;DHT22;52960;50.810;20.620;2022-07-29T06:00:11;24;87
66160;DHT22;52960;50.810;20.620;2022-07-29T06:14:04;23;88
66160;DHT22;52960;50.810;20.620;2022-07-29T06:21:11;23;88
66160;DHT22;52960;50.810;20.620;2022-07-29T06:28:18;23;88
66160;DHT22;52960;50.810;20.620;2022-07-29T06:42:32;23;89
66160;DHT22;52960;50.810;20.620;2022-07-29T06:49:06;23;89
66160;DHT22;52960;50.810;20.620;2022-07-29T06:56:06;23;89
66160;DHT22;52960;50.810;20.620;2022-07-29T07:00:08;23;89
66160;DHT22;52960;50.810;20.620;2022-07-29T07:14:12;23;89
66160;DHT22;52960;50.810;20.620;2022-07-29T07:21:10;23;89
66160;DHT22;52960;50.810;20.620;2022-07-29T07:28:07;23;89
66160;DHT22;52960;50.810;20.620;2022-07-29T07:42:05;23;90
66160;DHT22;52960;50.810;20.620;2022-07-29T07:49:22;23;90
66160;DHT22;52960;50.810;20.620;2022-07-29T07:56:02;23;90
66160;DHT22;52960;50.810;20.620;2022-07-29T08:00:06;23;90
66160;DHT22;52960;50.810;20.620;2022-07-29T08:14:04;23;90
66160;DHT22;52960;50.810;20.620;2022-07-29T08:21:19;23;90
66160;DHT22;52960;50.810;20.620;2022-07-29T08:28:07;23;90
66160;DHT22;52960;50.810;20.620;2022-07-29T08:35:17;23;90
66160;DHT22;52960;50.810;20.620;2022-07-29T08:42:02;23;90
66160;DHT22;52960;50.810;20.620;2022-07-29T08:49:18;23;90
66160;DHT22;52960;50.810;20.620;2022-07-29T08:56:04;23;90
66160;DHT22;52960;50.810;20.620;2022-07-29T09:00:12;23;90
66160;DHT22;52960;50.810;20.620;2022-07-29T09:14:11;23;91
66160;DHT22;52960;50.810;20.620;2022-07-29T09:28:06;23;91
66160;DHT22;52960;50.810;20.620;2022-07-29T09:35:34;23;91
66160;DHT22;52960;50.810;20.620;2022-07-29T09:42:34;23;91
66160;DHT22;52960;50.810;20.620;2022-07-29T09:49:21;23;91
66160;DHT22;52960;50.810;20.620;2022-07-29T09:56:04;23;91
66160;DHT22;52960;50.810;20.620;2022-07-29T10:00:23;23;91
66160;DHT22;52960;50.810;20.620;2022-07-29T10:14:18;23;90
66160;DHT22;52960;50.810;20.620;2022-07-29T10:21:16;23;90
66160;DHT22;52960;50.810;20.620;2022-07-29T10:28:16;23;90
66160;DHT22;52960;50.810;20.620;2022-07-29T10:42:13;23;90
66160;DHT22;52960;50.810;20.620;2022-07-29T10:56:37;23;90
66160;DHT22;52960;50.810;20.620;2022-07-29T11:00:37;23;90
66160;DHT22;52960;50.810;20.620;2022-07-29T11:07:23;23;90
66160;DHT22;52960;50.810;20.620;2022-07-29T11:14:02;22;91
66160;DHT22;52960;50.810;20.620;2022-07-29T11:21:41;22;91
66160;DHT22;52960;50.810;20.620;2022-07-29T11:29:01;22;91
66160;DHT22;52960;50.810;20.620;2022-07-29T11:35:33;22;91
66160;DHT22;52960;50.810;20.620;2022-07-29T11:42:53;23;91
66160;DHT22;52960;50.810;20.620;2022-07-29T11:49:24;23;91
66160;DHT22;52960;50.810;20.620;2022-07-29T11:56:23;23;91
66160;DHT22;52960;50.810;20.620;2022-07-29T12:00:28;23;91
66160;DHT22;52960;50.810;20.620;2022-07-29T12:07:02;23;91
66160;DHT22;52960;50.810;20.620;2022-07-29T12:14:33;23;91
66160;DHT22;52960;50.810;20.620;2022-07-29T12:21:16;23;91
66160;DHT22;52960;50.810;20.620;2022-07-29T12:28:18;23;91
66160;DHT22;52960;50.810;20.620;2022-07-29T12:35:07;23;91
66160;DHT22;52960;50.810;20.620;2022-07-29T12:42:12;24;90
66160;DHT22;52960;50.810;20.620;2022-07-29T12:49:06;24;90
66160;DHT22;52960;50.810;20.620;2022-07-29T12:56:29;24;90
66160;DHT22;52960;50.810;20.620;2022-07-29T13:00:15;24;90
66160;DHT22;52960;50.810;20.620;2022-07-29T13:07:25;24;90
66160;DHT22;52960;50.810;20.620;2022-07-29T13:14:42;24;85
66160;DHT22;52960;50.810;20.620;2022-07-29T13:21:16;24;85
66160;DHT22;52960;50.810;20.620;2022-07-29T13:28:04;24;85
66160;DHT22;52960;50.810;20.620;2022-07-29T13:35:13;24;85
66160;DHT22;52960;50.810;20.620;2022-07-29T13:49:03;24;75
66160;DHT22;52960;50.810;20.620;2022-07-29T13:56:07;24;75
66160;DHT22;52960;50.810;20.620;2022-07-29T14:00:01;24;75
66160;DHT22;52960;50.810;20.620;2022-07-29T14:07:03;24;75
66160;DHT22;52960;50.810;20.620;2022-07-29T14:21:17;25;68
66160;DHT22;52960;50.810;20.620;2022-07-29T14:28:03;25;68
66160;DHT22;52960;50.810;20.620;2022-07-29T14:35:21;25;68
66160;DHT22;52960;50.810;20.620;2022-07-29T14:49:21;25;68
66160;DHT22;52960;50.810;20.620;2022-07-29T14:56:05;25;68
66160;DHT22;52960;50.810;20.620;2022-07-29T15:00:10;25;68
66160;DHT22;52960;50.810;20.620;2022-07-29T15:07:02;25;68
66160;DHT22;52960;50.810;20.620;2022-07-29T15:21:20;23;73
66160;DHT22;52960;50.810;20.620;2022-07-29T15:28:09;23;73
66160;DHT22;52960;50.810;20.620;2022-07-29T15:35:15;23;73
66160;DHT22;52960;50.810;20.620;2022-07-29T15:49:19;23;73
66160;DHT22;52960;50.810;20.620;2022-07-29T15:56:17;23;73
66160;DHT22;52960;50.810;20.620;2022-07-29T16:00:08;23;73
66160;DHT22;52960;50.810;20.620;2022-07-29T16:07:04;23;73
66160;DHT22;52960;50.810;20.620;2022-07-29T16:21:05;23;71
66160;DHT22;52960;50.810;20.620;2022-07-29T16:28:03;23;71
66160;DHT22;52960;50.810;20.620;2022-07-29T16:35:11;23;71
66160;DHT22;52960;50.810;20.620;2022-07-29T16:49:18;23;71
66160;DHT22;52960;50.810;20.620;2022-07-29T16:56:03;23;71
66160;DHT22;52960;50.810;20.620;2022-07-29T17:00:02;23;71
66160;DHT22;52960;50.810;20.620;2022-07-29T17:07:03;23;71
66160;DHT22;52960;50.810;20.620;2022-07-29T17:21:05;23;70
66160;DHT22;52960;50.810;20.620;2022-07-29T17:28:17;23;70
66160;DHT22;52960;50.810;20.620;2022-07-29T17:49:02;23;70
66160;DHT22;52960;50.810;20.620;2022-07-29T17:56:06;23;70
66160;DHT22;52960;50.810;20.620;2022-07-29T18:00:00;23;70
66160;DHT22;52960;50.810;20.620;2022-07-29T18:07:05;23;70
66160;DHT22;52960;50.810;20.620;2022-07-29T18:21:19;23;66
66160;DHT22;52960;50.810;20.620;2022-07-29T18:28:18;23;66
66160;DHT22;52960;50.810;20.620;2022-07-29T18:35:09;23;66
66160;DHT22;52960;50.810;20.620;2022-07-29T18:42:17;23;66
66160;DHT22;52960;50.810;20.620;2022-07-29T18:49:23;23;66
66160;DHT22;52960;50.810;20.620;2022-07-29T18:56:03;23;66
66160;DHT22;52960;50.810;20.620;2022-07-29T19:00:02;23;66
66160;DHT22;52960;50.810;20.620;2022-07-29T19:07:22;23;66
66160;DHT22;52960;50.810;20.620;2022-07-29T19:21:13;25;85
66160;DHT22;52960;50.810;20.620;2022-07-29T19:28:02;25;85
66160;DHT22;52960;50.810;20.620;2022-07-29T19:35:50;25;85
66160;DHT22;52960;50.810;20.620;2022-07-29T19:42:10;25;85
66160;DHT22;52960;50.810;20.620;2022-07-29T19:49:19;25;85
66160;DHT22;52960;50.810;20.620;2022-07-29T19:56:18;25;85
66160;DHT22;52960;50.810;20.620;2022-07-29T20:00:25;25;85
66160;DHT22;52960;50.810;20.620;2022-07-29T20:07:04;25;85
66160;DHT22;52960;50.810;20.620;2022-07-29T20:21:15;25;84
66160;DHT22;52960;50.810;20.620;2022-07-29T20:28:14;25;84
66160;DHT22;52960;50.810;20.620;2022-07-29T20:35:03;25;84
66160;DHT22;52960;50.810;20.620;2022-07-29T20:42:02;25;84
66160;DHT22;52960;50.810;20.620;2022-07-29T20:49:05;25;85
66160;DHT22;52960;50.810;20.620;2022-07-29T20:56:03;25;85
66160;DHT22;52960;50.810;20.620;2022-07-29T21:00:13;25;85
66160;DHT22;52960;50.810;20.620;2022-07-29T21:07:06;25;85
66160;DHT22;52960;50.810;20.620;2022-07-29T21:14:47;25;85
66160;DHT22;52960;50.810;20.620;2022-07-29T21:21:07;25;84
66160;DHT22;52960;50.810;20.620;2022-07-29T21:35:07;25;84
66160;DHT22;52960;50.810;20.620;2022-07-29T21:42:03;25;84
66160;DHT22;52960;50.810;20.620;2022-07-29T21:49:18;25;85
66160;DHT22;52960;50.810;20.620;2022-07-29T21:56:18;25;85
66160;DHT22;52960;50.810;20.620;2022-07-29T22:00:25;25;85
66160;DHT22;52960;50.810;20.620;2022-07-29T22:07:16;25;85
66160;DHT22;52960;50.810;20.620;2022-07-29T22:14:03;26;85
66160;DHT22;52960;50.810;20.620;2022-07-29T22:21:16;26;85
66160;DHT22;52960;50.810;20.620;2022-07-29T22:28:19;26;85
66160;DHT22;52960;50.810;20.620;2022-07-29T22:35:04;26;84
66160;DHT22;52960;50.810;20.620;2022-07-29T22:42:19;26;84
66160;DHT22;52960;50.810;20.620;2022-07-29T22:49:19;26;84
66160;DHT22;52960;50.810;20.620;2022-07-29T22:56:07;26;84
66160;DHT22;52960;50.810;20.620;2022-07-29T23:07:15;23;69
66160;DHT22;52960;50.810;20.620;2022-07-29T23:14:04;23;69
66160;DHT22;52960;50.810;20.620;2022-07-29T23:21:03;23;69
66160;DHT22;52960;50.810;20.620;2022-07-29T23:28:05;23;69
66160;DHT22;52960;50.810;20.620;2022-07-29T23:42:08;23;69
66160;DHT22;52960;50.810;20.620;2022-07-29T23:49:19;23;69
66160;DHT22;52960;50.810;20.620;2022-07-29T23:56:08;23;69
